Time;durP1;ratioP1;P1;durP2;ratioP2;P2;SDS_P1;SDS_P2;PMS_P1;PMS_P2;Temp;Humidity;BMP_temperature;BMP_pressure;BME280_temperature;BME280_humidity;BME280_pressure;Samples;Min_cycle;Max_cycle;Signal;HPM_P1;HPM_P2
2023/01/30 00:01:39;;;;;;;17.45;7.85;;;;;;;2.63;68.65;99821.41;4998285;28;20029;-94
2023/01/30 00:04:04;;;;;;;12.88;7.00;;;;;;;2.62;69.09;99822.44;4982198;28;20186;-94
2023/01/30 00:06:30;;;;;;;13.25;7.35;;;;;;;2.63;68.24;99813.41;5000289;28;20104;-94
2023/01/30 00:08:55;;;;;;;16.73;7.53;;;;;;;2.53;68.66;99808.53;5021512;28;20411;-94
2023/01/30 00:11:21;;;;;;;17.95;7.70;;;;;;;2.59;68.87;99815.69;5010532;28;20021;-94
2023/01/30 00:13:47;;;;;;;16.98;7.93;;;;;;;2.83;68.39;99845.31;5021341;28;20028;-93
2023/01/30 00:16:13;;;;;;;13.15;6.35;;;;;;;2.65;68.82;99826.50;5011317;28;20082;-94
2023/01/30 00:18:39;;;;;;;13.50;7.03;;;;;;;2.45;69.23;99816.72;5021294;28;20021;-93
2023/01/30 00:21:05;;;;;;;13.90;7.57;;;;;;;2.46;69.54;99810.34;5005261;28;20090;-93
2023/01/30 00:23:32;;;;;;;14.32;7.50;;;;;;;2.41;69.90;99828.78;5000836;28;20025;-94
2023/01/30 00:25:58;;;;;;;16.63;6.57;;;;;;;2.41;68.43;99804.84;5000897;28;20022;-93
2023/01/30 00:28:23;;;;;;;12.50;6.85;;;;;;;2.40;68.78;99805.84;5004519;28;20032;-92
2023/01/30 00:30:52;;;;;;;14.63;7.10;;;;;;;2.43;69.00;99824.88;5017926;28;20025;-93
2023/01/30 00:33:18;;;;;;;12.00;6.53;;;;;;;2.52;68.34;99811.38;4985069;28;20021;-93
2023/01/30 00:35:46;;;;;;;12.38;6.40;;;;;;;2.48;68.11;99818.94;4985666;28;20028;-94
2023/01/30 00:38:11;;;;;;;13.57;6.93;;;;;;;2.46;67.93;99807.69;5001069;28;20537;-93
2023/01/30 00:40:37;;;;;;;12.45;6.47;;;;;;;2.58;67.26;99830.00;4988723;28;20026;-94
2023/01/30 00:48:31;;;;;;;12.25;6.25;;;;;;;2.39;67.40;99806.91;5046001;28;20170;-93
2023/01/30 00:50:56;;;;;;;11.93;6.25;;;;;;;2.29;68.90;99807.28;5032204;28;20021;-93
2023/01/30 00:53:22;;;;;;;11.98;5.88;;;;;;;2.22;69.39;99796.66;5024152;28;20086;-93
2023/01/30 00:55:49;;;;;;;12.95;5.95;;;;;;;2.31;67.64;99796.47;5015598;28;20024;-93
2023/01/30 00:58:15;;;;;;;13.13;5.93;;;;;;;2.20;68.23;99787.25;5024074;28;20025;-93
2023/01/30 01:00:40;;;;;;;12.35;6.20;;;;;;;2.42;67.82;99803.81;5024239;28;20025;-93
2023/01/30 01:03:06;;;;;;;15.52;6.70;;;;;;;2.42;67.46;99801.97;5023829;28;20008;-93
2023/01/30 01:05:31;;;;;;;12.00;6.05;;;;;;;2.45;67.73;99814.06;5032520;28;20060;-93
2023/01/30 01:07:57;;;;;;;11.30;6.22;;;;;;;2.34;67.82;99804.00;5024205;28;20533;-94
2023/01/30 01:10:22;;;;;;;13.95;6.60;;;;;;;2.40;67.72;99808.50;5016789;28;20021;-94
2023/01/30 01:12:48;;;;;;;15.48;7.00;;;;;;;2.25;67.61;99787.47;5023645;28;20032;-94
2023/01/30 01:15:14;;;;;;;12.50;5.75;;;;;;;2.28;68.25;99775.59;5039953;28;20073;-93
2023/01/30 01:17:40;;;;;;;11.45;6.72;;;;;;;2.39;68.18;99791.75;5024191;28;20029;-94
2023/01/30 01:20:06;;;;;;;14.65;6.68;;;;;;;2.42;68.53;99788.69;5024609;28;20202;-93
2023/01/30 01:22:31;;;;;;;11.65;6.07;;;;;;;2.32;67.89;99772.31;5023372;28;20505;-94
2023/01/30 01:24:57;;;;;;;10.90;5.82;;;;;;;2.31;69.43;99778.69;5037227;28;20028;-93
2023/01/30 01:27:22;;;;;;;11.15;5.55;;;;;;;2.16;70.55;99759.47;5017372;28;20072;-94
2023/01/30 01:29:48;;;;;;;11.82;5.20;;;;;;;2.30;69.86;99766.41;4984833;28;20028;-94
2023/01/30 01:32:13;;;;;;;12.23;5.57;;;;;;;2.30;69.49;99769.06;4984562;28;20087;-93
2023/01/30 01:34:39;;;;;;;12.38;5.30;;;;;;;2.31;68.54;99761.94;4983690;28;20021;-93
2023/01/30 01:37:04;;;;;;;12.23;6.60;;;;;;;2.16;68.51;99754.97;4998762;28;20025;-93
2023/01/30 01:41:00;;;;;;;12.32;6.68;;;;;;;2.07;69.35;99750.88;5003722;28;20075;-94
2023/01/30 01:42:15;;;;;;;10.55;6.03;;;;;;;2.22;69.24;99753.31;5039567;28;20025;-94
2023/01/30 01:45:23;;;;;;;13.98;6.10;;;;;;;2.20;69.66;99745.56;5003508;28;20025;-94
2023/01/30 01:48:08;;;;;;;12.40;5.78;;;;;;;2.25;69.93;99744.16;4955995;28;20026;-94
2023/01/30 01:51:01;;;;;;;10.68;5.53;;;;;;;2.29;68.69;99742.72;5001800;28;20491;-93
2023/01/30 01:53:30;;;;;;;10.73;5.60;;;;;;;2.32;68.14;99747.59;5029853;28;20513;-93
2023/01/30 01:55:56;;;;;;;12.90;6.28;;;;;;;2.16;70.11;99744.34;5025000;28;20032;-94
2023/01/30 01:58:43;;;;;;;8.75;5.28;;;;;;;2.14;69.68;99733.13;5026802;28;20107;-94
2023/01/30 02:01:09;;;;;;;12.50;6.10;;;;;;;2.16;69.11;99738.22;5044939;28;20089;-94
2023/01/30 02:03:37;;;;;;;11.73;6.38;;;;;;;2.32;67.93;99744.94;5027193;28;20013;-93
2023/01/30 02:06:03;;;;;;;11.02;6.13;;;;;;;2.16;68.59;99736.38;5021579;28;20036;-93
2023/01/30 02:08:38;;;;;;;14.38;6.20;;;;;;;2.26;69.28;99753.75;5007419;28;20017;-93
2023/01/30 02:11:24;;;;;;;13.70;6.18;;;;;;;2.04;70.76;99739.84;5039165;28;20029;-93
2023/01/30 02:13:50;;;;;;;12.40;6.10;;;;;;;2.00;69.92;99739.44;5007291;28;20021;-93
2023/01/30 02:16:15;;;;;;;9.77;5.63;;;;;;;2.04;68.77;99730.03;5003691;28;20025;-94
2023/01/30 02:18:41;;;;;;;9.75;5.35;;;;;;;2.07;68.29;99729.63;4987211;28;20032;-94
2023/01/30 02:21:25;;;;;;;11.52;5.32;;;;;;;2.19;67.44;99751.09;5003744;28;20028;-93
2023/01/30 02:23:50;;;;;;;13.40;6.25;;;;;;;2.17;67.80;99739.84;5019781;28;20021;-92
2023/01/30 02:26:25;;;;;;;12.70;6.43;;;;;;;2.12;68.50;99748.44;5018714;28;20404;-94
2023/01/30 02:29:14;;;;;;;11.95;5.85;;;;;;;2.01;67.17;99735.75;5019227;28;20116;-94
2023/01/30 02:31:48;;;;;;;11.27;5.32;;;;;;;2.06;67.97;99729.84;5040036;28;20085;-93
2023/01/30 02:34:20;;;;;;;15.88;6.47;;;;;;;2.07;68.67;99736.78;5042444;28;20021;-93
2023/01/30 02:37:17;;;;;;;11.10;6.05;;;;;;;2.09;68.25;99743.50;5056419;28;20089;-93
2023/01/30 02:40:15;;;;;;;10.73;5.80;;;;;;;2.01;68.02;99741.91;5059039;28;20038;-92
2023/01/30 02:42:44;;;;;;;8.52;5.28;;;;;;;2.11;67.15;99740.66;5043817;28;20020;-93
2023/01/30 02:45:28;;;;;;;11.95;5.85;;;;;;;2.11;67.61;99749.44;5059530;28;20052;-93
2023/01/30 02:48:04;;;;;;;12.10;5.28;;;;;;;2.06;67.98;99729.84;5059084;28;20014;-93
2023/01/30 02:50:33;;;;;;;19.35;6.00;;;;;;;1.99;67.69;99746.59;5028313;28;20044;-92
2023/01/30 02:52:58;;;;;;;10.00;5.50;;;;;;;1.97;68.56;99737.16;5026168;28;20475;-94
2023/01/30 02:55:28;;;;;;;10.18;5.82;;;;;;;1.99;68.06;99727.16;5026127;28;20082;-92
2023/01/30 02:57:54;;;;;;;9.55;5.55;;;;;;;1.88;70.52;99736.56;5006525;28;20086;-93
2023/01/30 03:01:24;;;;;;;13.00;4.97;;;;;;;1.95;71.17;99734.75;5022870;28;20036;-93
2023/01/30 03:04:37;;;;;;;12.32;6.78;;;;;;;2.02;71.55;99754.13;4977585;28;20064;-92
2023/01/30 03:07:41;;;;;;;12.27;5.28;;;;;;;1.95;71.07;99755.16;4990614;28;20033;-93
2023/01/30 03:10:52;;;;;;;10.80;6.05;;;;;;;2.03;69.87;99752.28;5038184;28;20036;-94
2023/01/30 03:13:17;;;;;;;13.55;6.65;;;;;;;1.98;70.44;99758.22;5010128;28;20115;-95
2023/01/30 03:16:02;;;;;;;10.95;6.53;;;;;;;1.97;70.60;99750.44;5036862;28;20025;-94
2023/01/30 03:18:28;;;;;;;10.23;5.78;;;;;;;1.95;68.55;99732.09;5038947;28;20029;-92
2023/01/30 03:20:53;;;;;;;9.10;5.25;;;;;;;2.01;67.09;99738.41;5020844;28;20021;-92
2023/01/30 03:23:19;;;;;;;8.82;5.05;;;;;;;1.97;68.20;99726.56;5006173;28;20097;-93
2023/01/30 03:25:44;;;;;;;8.98;5.07;;;;;;;2.08;66.26;99741.91;5006622;28;20020;-93
2023/01/30 03:28:10;;;;;;;9.50;4.70;;;;;;;1.97;65.28;99739.81;5005083;28;20051;-93
2023/01/30 03:30:35;;;;;;;9.55;4.55;;;;;;;1.98;65.82;99738.81;5004726;28;20052;-92
2023/01/30 03:33:01;;;;;;;8.00;4.50;;;;;;;1.94;65.11;99737.59;5005867;28;20040;-93
2023/01/30 03:35:26;;;;;;;7.93;4.15;;;;;;;2.01;65.45;99736.59;5006122;28;20024;-93
2023/01/30 03:37:51;;;;;;;9.35;5.43;;;;;;;1.92;65.14;99731.66;5005597;28;20033;-93
2023/01/30 03:40:17;;;;;;;10.02;4.63;;;;;;;1.79;64.82;99719.19;5004882;28;20061;-92
2023/01/30 03:42:42;;;;;;;9.57;5.13;;;;;;;1.83;65.23;99731.06;5006288;28;20013;-94
2023/01/30 03:45:11;;;;;;;12.95;5.82;;;;;;;1.67;65.50;99705.69;5005625;28;20032;-94
2023/01/30 03:47:36;;;;;;;9.13;4.53;;;;;;;1.88;64.40;99733.09;5039746;28;20032;-94
2023/01/30 03:50:02;;;;;;;8.77;4.15;;;;;;;1.84;64.80;99745.94;5024914;28;20029;-95
2023/01/30 03:52:29;;;;;;;6.20;4.38;;;;;;;1.84;66.01;99743.28;5025398;28;20031;-95
2023/01/30 03:54:55;;;;;;;8.75;4.18;;;;;;;1.64;67.46;99723.84;5025146;28;20040;-95
2023/01/30 03:57:22;;;;;;;11.68;4.93;;;;;;;1.64;68.55;99722.03;5027255;28;20124;-93
2023/01/30 03:59:49;;;;;;;8.57;4.63;;;;;;;1.79;66.55;99719.19;5004694;28;20021;-94
2023/01/30 04:02:19;;;;;;;9.45;5.20;;;;;;;1.87;66.96;99718.16;5007222;28;20127;-94
2023/01/30 04:04:45;;;;;;;9.52;4.97;;;;;;;1.88;67.16;99727.78;5023664;28;20028;-92
2023/01/30 04:07:11;;;;;;;12.50;5.20;;;;;;;1.74;67.24;99693.28;5005001;28;20418;-92
2023/01/30 04:09:37;;;;;;;10.35;5.35;;;;;;;1.78;66.06;99713.06;5004799;28;20032;-95
2023/01/30 04:12:02;;;;;;;6.45;4.03;;;;;;;1.82;65.62;99708.97;5020655;28;20028;-95
2023/01/30 04:14:28;;;;;;;10.30;4.32;;;;;;;1.93;64.39;99704.91;5005694;28;20017;-94
2023/01/30 04:16:53;;;;;;;11.18;5.20;;;;;;;1.81;66.17;99682.66;5004953;28;20475;-94
2023/01/30 04:19:20;;;;;;;10.02;4.68;;;;;;;1.99;66.18;99711.22;5004742;28;20028;-93
2023/01/30 04:21:47;;;;;;;7.47;4.13;;;;;;;1.98;66.67;99699.81;5037132;28;20389;-92
2023/01/30 04:24:13;;;;;;;10.60;5.25;;;;;;;1.93;64.79;99683.69;5005868;28;20021;-94
2023/01/30 04:26:40;;;;;;;11.05;4.97;;;;;;;2.00;64.44;99687.13;5004959;28;20045;-94
2023/01/30 04:29:06;;;;;;;9.52;5.35;;;;;;;2.09;65.15;99708.97;5004920;28;20021;-93
2023/01/30 04:31:32;;;;;;;12.02;4.93;;;;;;;2.16;66.03;99707.16;5021163;28;20029;-94
2023/01/30 04:33:58;;;;;;;9.23;5.18;;;;;;;2.10;65.21;99700.00;5005967;28;20056;-93
2023/01/30 04:36:23;;;;;;;10.43;4.90;;;;;;;1.90;67.05;99688.56;5018031;28;20056;-93
2023/01/30 04:38:49;;;;;;;8.73;4.82;;;;;;;1.88;67.23;99695.91;4986623;28;20052;-93
2023/01/30 04:41:14;;;;;;;8.70;5.03;;;;;;;2.02;65.91;99697.56;4986994;28;20021;-93
2023/01/30 04:43:40;;;;;;;11.75;5.40;;;;;;;2.02;66.39;99698.38;5003125;28;20033;-94
2023/01/30 04:46:05;;;;;;;13.50;5.68;;;;;;;2.02;67.06;99677.13;5002441;28;20209;-93
2023/01/30 04:48:31;;;;;;;11.38;5.35;;;;;;;2.07;66.06;99687.13;5005811;28;20446;-94
2023/01/30 04:50:57;;;;;;;12.45;5.72;;;;;;;2.08;66.80;99690.63;5009633;28;20430;-94
2023/01/30 04:53:22;;;;;;;10.02;5.35;;;;;;;2.13;67.12;99706.75;5021790;28;20040;-94
2023/01/30 04:55:49;;;;;;;13.63;5.88;;;;;;;2.03;67.31;99683.25;5005381;28;20032;-93
2023/01/30 04:58:15;;;;;;;12.82;5.38;;;;;;;2.23;65.22;99707.97;5021202;28;20033;-93
2023/01/30 05:00:41;;;;;;;10.43;5.25;;;;;;;2.17;66.15;99686.72;5005521;28;20029;-93
2023/01/30 05:03:08;;;;;;;14.02;5.20;;;;;;;2.27;65.74;99703.06;5021288;28;20033;-94
2023/01/30 05:05:34;;;;;;;10.02;5.38;;;;;;;2.19;67.18;99704.06;5016924;28;20021;-93
2023/01/30 05:08:00;;;;;;;8.57;5.10;;;;;;;2.27;66.54;99702.25;5036523;28;20117;-94
2023/01/30 05:10:27;;;;;;;13.15;5.40;;;;;;;2.36;65.54;99708.97;5021446;28;20024;-96
2023/01/30 05:12:54;;;;;;;12.88;6.20;;;;;;;2.37;65.96;99702.66;5018868;28;20022;-95
2023/01/30 05:15:19;;;;;;;9.95;5.78;;;;;;;2.21;65.31;99678.13;5002752;28;20021;-95
2023/01/30 05:17:45;;;;;;;10.98;5.68;;;;;;;2.29;65.90;99692.25;4986176;28;20086;-95
2023/01/30 05:20:12;;;;;;;11.93;6.07;;;;;;;2.38;66.63;99693.63;5018836;28;20032;-96
2023/01/30 05:22:38;;;;;;;9.32;6.05;;;;;;;2.25;67.09;99680.38;5002322;28;20135;-95
2023/01/30 05:25:05;;;;;;;14.73;6.47;;;;;;;2.52;65.56;99705.06;5030172;28;20027;-95
2023/01/30 05:27:30;;;;;;;13.90;6.03;;;;;;;2.36;65.65;99701.00;5014216;28;20504;-94
2023/01/30 05:29:58;;;;;;;10.88;5.70;;;;;;;2.25;66.61;99691.00;5005282;28;20040;-95
2023/01/30 05:32:26;;;;;;;13.98;6.45;;;;;;;2.31;65.56;99690.19;5025353;28;20013;-95
2023/01/30 05:34:53;;;;;;;11.18;6.88;;;;;;;2.22;65.89;99693.06;5023572;28;20022;-93
2023/01/30 05:37:19;;;;;;;13.35;8.13;;;;;;;2.19;66.15;99693.47;5022627;28;20549;-94
2023/01/30 05:39:44;;;;;;;11.32;5.95;;;;;;;2.46;63.91;99713.88;5015769;28;20891;-95
2023/01/30 05:42:10;;;;;;;13.88;6.35;;;;;;;2.51;65.31;99722.03;5025596;28;20031;-95
2023/01/30 05:44:36;;;;;;;16.90;7.57;;;;;;;2.37;66.47;99700.00;5009013;28;20507;-95
2023/01/30 05:47:05;;;;;;;13.98;6.28;;;;;;;2.52;66.28;99721.03;5000786;28;20156;-95
2023/01/30 05:49:30;;;;;;;13.27;6.18;;;;;;;2.48;65.49;99719.81;5008677;28;20121;-95
2023/01/30 05:51:59;;;;;;;12.68;6.78;;;;;;;2.53;66.32;99722.63;5029194;28;20029;-94
2023/01/30 06:00:10;;;;;;;12.23;6.28;;;;;;;2.63;66.06;99696.44;4953705;28;20047;-92
2023/01/30 06:02:39;;;;;;;13.23;6.45;;;;;;;2.71;67.26;99701.53;4921232;29;20042;-93
2023/01/30 06:05:05;;;;;;;13.82;6.80;;;;;;;2.86;66.86;99701.28;4943433;29;20043;-95
2023/01/30 06:07:32;;;;;;;14.60;6.95;;;;;;;2.98;65.86;99715.56;4911492;29;20101;-94
2023/01/30 06:09:57;;;;;;;15.98;6.70;;;;;;;2.89;64.81;99689.44;4931117;29;20046;-94
2023/01/30 06:12:25;;;;;;;12.15;7.13;;;;;;;2.92;65.77;99696.97;4924974;29;20470;-92
2023/01/30 06:14:51;;;;;;;14.52;7.60;;;;;;;2.98;64.23;99696.13;4912484;29;20031;-93
2023/01/30 06:17:17;;;;;;;14.38;6.10;;;;;;;3.20;63.94;99712.63;4928313;29;20074;-96
2023/01/30 06:19:44;;;;;;;18.23;8.80;;;;;;;3.11;66.94;99719.22;4944687;29;20031;-96
2023/01/30 06:22:09;;;;;;;14.93;8.68;;;;;;;3.10;65.22;99712.25;4909938;29;20035;-93
2023/01/30 06:24:35;;;;;;;20.00;7.28;;;;;;;3.20;62.19;99728.59;4911619;29;20071;-92
2023/01/30 06:27:01;;;;;;;17.45;8.63;;;;;;;3.11;63.39;99716.53;4917906;29;20031;-93
2023/01/30 06:29:29;;;;;;;25.58;12.40;;;;;;;3.28;65.13;99735.50;4928401;29;20545;-95
2023/01/30 06:31:55;;;;;;;25.00;12.75;;;;;;;3.14;65.00;99716.13;4930333;29;20027;-94
2023/01/30 06:34:20;;;;;;;28.20;15.82;;;;;;;3.06;65.77;99713.72;4937109;29;20043;-94
2023/01/30 06:37:22;;;;;;;29.13;13.60;;;;;;;3.28;65.14;99730.19;4912640;29;20429;-95
2023/01/30 06:39:47;;;;;;;20.97;11.13;;;;;;;3.21;65.36;99715.06;4937626;29;20018;-96
2023/01/30 06:42:14;;;;;;;28.20;15.63;;;;;;;3.22;65.66;99708.72;4913535;29;20306;-94
2023/01/30 06:44:40;;;;;;;40.53;19.35;;;;;;;3.21;64.84;99701.75;4929989;29;20023;-96
2023/01/30 06:47:05;;;;;;;28.63;12.80;;;;;;;3.26;64.52;99710.94;4931125;29;20032;-93
2023/01/30 06:49:31;;;;;;;16.27;10.13;;;;;;;3.30;65.11;99698.84;4911975;29;20538;-95
2023/01/30 06:52:00;;;;;;;17.50;8.80;;;;;;;3.41;64.34;99699.00;4910550;29;20031;-95
2023/01/30 06:54:27;;;;;;;22.05;10.88;;;;;;;3.56;63.19;99705.88;4926182;29;20034;-96
2023/01/30 06:56:53;;;;;;;16.63;9.90;;;;;;;3.52;63.38;99700.16;4928146;29;20042;-94
2023/01/30 06:59:19;;;;;;;21.10;12.13;;;;;;;3.60;63.89;99715.06;4931100;28;20058;-92
2023/01/30 07:01:47;;;;;;;26.27;14.57;;;;;;;3.60;63.86;99710.56;4911246;29;20121;-93
2023/01/30 07:04:13;;;;;;;13.55;7.53;;;;;;;3.64;61.33;99701.13;4928537;29;20095;-93
2023/01/30 07:06:45;;;;;;;14.57;8.52;;;;;;;3.69;62.10;99704.97;4911608;29;20058;-95
2023/01/30 07:09:14;;;;;;;14.27;7.30;;;;;;;3.78;60.80;99707.19;4943127;29;20077;-96
2023/01/30 07:11:40;;;;;;;15.60;8.73;;;;;;;3.62;63.02;99691.72;4925887;29;20520;-93
2023/01/30 07:14:06;;;;;;;15.77;9.30;;;;;;;3.43;62.99;99685.50;4928257;29;20031;-94
2023/01/30 07:16:31;;;;;;;14.32;7.90;;;;;;;3.48;62.12;99692.81;4926629;29;20074;-93
2023/01/30 07:19:18;;;;;;;15.20;7.35;;;;;;;3.71;62.08;99706.38;4945174;28;20039;-96
2023/01/30 07:29:26;;;;;;;17.50;8.73;;;;;;;3.60;61.78;99685.78;4950501;28;20059;-94
2023/01/30 07:37:38;;;;;;;12.38;6.50;;;;;;;3.75;61.03;99696.94;5178531;23;20058;-96
2023/01/30 07:40:41;;;;;;;11.60;6.15;;;;;;;3.64;60.68;99673.69;4986630;28;20033;-96
2023/01/30 07:43:33;;;;;;;22.90;11.30;;;;;;;3.49;60.86;99675.84;4891514;28;20041;-95
2023/01/30 07:48:54;;;;;;;12.73;6.35;;;;;;;3.71;61.01;99681.63;4990502;28;20054;-96
2023/01/30 07:51:26;;;;;;;13.98;6.32;;;;;;;3.70;61.66;99685.31;4976051;28;20034;-95
2023/01/30 07:53:53;;;;;;;12.30;6.35;;;;;;;3.82;60.02;99695.06;4976368;28;20042;-95
2023/01/30 07:59:25;;;;;;;14.82;6.47;;;;;;;3.89;59.76;99672.88;5320368;23;20074;-96
2023/01/30 08:04:33;;;;;;;13.63;6.40;;;;;;;3.96;60.05;99678.97;5453770;23;20333;-96
2023/01/30 08:07:00;;;;;;;12.40;6.60;;;;;;;3.98;58.97;99680.38;4996459;28;20050;-96
2023/01/30 08:09:38;;;;;;;14.73;6.90;;;;;;;4.21;61.45;99702.94;4942472;28;20043;-96
2023/01/30 08:12:05;;;;;;;11.63;6.47;;;;;;;4.03;58.95;99685.88;4956110;28;20075;-95
2023/01/30 08:14:31;;;;;;;15.57;7.40;;;;;;;3.60;59.60;99683.13;4949179;28;20030;-96
2023/01/30 08:16:56;;;;;;;31.48;17.15;;;;;;;3.77;60.06;99673.56;4923909;29;20035;-96
2023/01/30 08:19:22;;;;;;;11.50;6.13;;;;;;;3.77;59.76;99667.44;4906558;29;20044;-93
2023/01/30 08:21:53;;;;;;;13.20;6.55;;;;;;;3.89;60.70;99684.34;4914463;29;20039;-95
2023/01/30 08:24:18;;;;;;;14.90;7.72;;;;;;;3.79;61.37;99687.50;4899839;29;20035;-94
2023/01/30 08:27:17;;;;;;;12.95;6.72;;;;;;;3.90;58.31;99670.00;4900962;29;20039;-96
2023/01/30 08:29:56;;;;;;;14.23;8.13;;;;;;;3.97;60.40;99665.44;4930776;29;20063;-96
2023/01/30 08:32:22;;;;;;;10.52;5.63;;;;;;;4.05;59.81;99672.34;4912259;29;20042;-95
2023/01/30 08:34:48;;;;;;;19.05;10.63;;;;;;;4.03;58.74;99674.41;4882911;29;20044;-95
2023/01/30 08:37:15;;;;;;;16.63;9.13;;;;;;;4.12;59.56;99667.75;4891832;29;20091;-93
2023/01/30 08:39:41;;;;;;;9.32;5.30;;;;;;;4.20;56.82;99691.47;4873814;29;20139;-93
2023/01/30 08:42:06;;;;;;;13.48;7.00;;;;;;;4.13;58.44;99653.41;4870881;29;20779;-93
2023/01/30 08:44:32;;;;;;;13.40;7.50;;;;;;;3.88;59.50;99639.28;4871096;29;20024;-93
2023/01/30 08:47:00;;;;;;;13.98;6.25;;;;;;;4.11;57.35;99663.47;4889053;29;20030;-96
2023/01/30 08:49:25;;;;;;;11.23;6.53;;;;;;;4.24;57.64;99658.00;4890738;29;20042;-93
2023/01/30 08:51:51;;;;;;;13.50;6.85;;;;;;;4.33;58.36;99647.06;4888668;29;20032;-95
2023/01/30 08:54:29;;;;;;;10.82;5.85;;;;;;;4.30;55.94;99658.19;4903899;28;20508;-96
2023/01/30 08:57:04;;;;;;;9.77;6.18;;;;;;;4.28;57.72;99662.91;4961935;28;20046;-95
2023/01/30 08:59:34;;;;;;;13.73;6.03;;;;;;;4.39;56.19;99667.50;4953739;28;20014;-94
2023/01/30 09:02:03;;;;;;;14.00;5.78;;;;;;;4.41;56.29;99649.44;4956227;28;20057;-95
2023/01/30 09:04:36;;;;;;;9.55;5.30;;;;;;;4.57;55.28;99664.88;4979750;28;20049;-96
2023/01/30 09:07:04;;;;;;;12.35;5.82;;;;;;;4.28;56.19;99629.06;4939504;29;20490;-96
2023/01/30 09:09:57;;;;;;;11.70;6.60;;;;;;;4.36;58.89;99638.66;4942961;29;20036;-96
2023/01/30 09:12:35;;;;;;;10.75;6.38;;;;;;;4.33;58.24;99631.06;4934559;28;20447;-96
2023/01/30 09:18:09;;;;;;;11.60;5.40;;;;;;;4.52;55.37;99639.91;5117053;23;20066;-96
2023/01/30 09:20:40;;;;;;;10.50;5.03;;;;;;;4.45;56.22;99622.13;4953581;28;20045;-96
2023/01/30 09:23:05;;;;;;;16.35;6.80;;;;;;;4.36;56.25;99628.78;4964713;28;20042;-94
2023/01/30 09:26:02;;;;;;;12.82;7.05;;;;;;;4.10;58.53;99618.38;4948383;28;20046;-96
2023/01/30 09:28:30;;;;;;;13.90;5.95;;;;;;;4.25;57.14;99632.16;4946678;28;20018;-96
2023/01/30 09:31:35;;;;;;;;;;;;;;;;;;;;;
2023/01/30 09:34:27;;;;;;;12.88;6.78;;;;;;;4.31;54.89;99603.81;4975652;28;20087;-96
2023/01/30 09:37:01;;;;;;;11.05;5.68;;;;;;;4.21;57.23;99594.50;4920622;29;20041;-96
2023/01/30 09:42:45;;;;;;;13.13;7.10;;;;;;;4.40;56.18;99595.31;4924447;29;20016;-94
2023/01/30 09:45:52;;;;;;;12.52;6.88;;;;;;;4.43;55.09;99583.38;4911374;29;20027;-94
2023/01/30 09:48:27;;;;;;;16.35;6.38;;;;;;;4.39;55.87;99571.53;4927012;29;20122;-94
2023/01/30 09:51:10;;;;;;;9.27;5.45;;;;;;;4.47;54.74;99592.56;4924309;29;20095;-91
2023/01/30 09:53:46;;;;;;;15.60;7.07;;;;;;;4.42;54.57;99576.41;4934913;29;20027;-94
2023/01/30 09:56:12;;;;;;;9.65;4.65;;;;;;;4.27;54.04;99558.13;4916011;29;20032;-95
2023/01/30 09:59:09;;;;;;;9.05;5.15;;;;;;;4.33;54.62;99567.09;4927810;29;20094;-96
2023/01/30 10:01:41;;;;;;;10.77;5.85;;;;;;;4.40;55.38;99573.16;4911339;29;20059;-96
2023/01/30 10:04:26;;;;;;;11.30;5.80;;;;;;;4.56;54.20;99577.88;4924188;29;20118;-95
2023/01/30 10:07:42;;;;;;;12.43;5.85;;;;;;;4.44;53.69;99577.84;4924062;28;20027;-94
2023/01/30 10:10:45;;;;;;;12.10;6.47;;;;;;;4.43;55.87;99573.53;4978675;28;20116;-95
2023/01/30 10:13:13;;;;;;;;;;;;;;;4.41;53.62;99564.13;4981891;28;20035;-95
2023/01/30 10:16:13;;;;;;;10.15;4.45;;;;;;;4.15;53.88;99531.44;4988105;28;20291;-96
2023/01/30 10:19:09;;;;;;;11.63;5.45;;;;;;;4.25;54.87;99537.06;5297944;23;21566;-96
2023/01/30 10:22:00;;;;;;;6.78;4.82;;;;;;;4.30;54.32;99548.91;4992989;28;20035;-93
2023/01/30 10:24:35;;;;;;;16.67;9.93;;;;;;;4.20;55.20;99512.09;4971652;28;20038;-95
2023/01/30 10:27:06;;;;;;;12.90;5.75;;;;;;;4.28;54.85;99511.00;4974882;28;20038;-96
2023/01/30 10:29:34;;;;;;;11.02;5.18;;;;;;;4.39;54.60;99539.56;4956876;28;20046;-95
2023/01/30 10:32:40;;;;;;;11.60;5.70;;;;;;;4.25;54.93;99501.56;4972221;28;20038;-96
2023/01/30 10:35:39;;;;;;;12.02;4.53;;;;;;;4.52;53.08;99526.03;4960567;28;20057;-96
2023/01/30 10:38:30;;;;;;;9.63;5.07;;;;;;;4.23;55.00;99493.00;4963959;28;20088;-95
2023/01/30 10:41:25;;;;;;;18.25;9.13;;;;;;;4.45;55.11;99520.81;4968728;28;20493;-95
2023/01/30 10:47:39;;;;;;;11.77;5.80;;;;;;;4.30;54.49;99506.25;5992837;23;21233;-96
2023/01/30 10:50:27;;;;;;;13.90;7.82;;;;;;;4.38;54.55;99482.75;4973816;28;20062;-96
2023/01/30 10:53:16;;;;;;;15.10;7.20;;;;;;;4.47;53.88;99499.25;4984124;28;20090;-96
2023/01/30 10:59:03;;;;;;;19.88;6.93;;;;;;;4.51;55.78;99479.09;5171574;23;20104;-96
2023/01/30 11:01:54;;;;;;;18.00;8.75;;;;;;;4.47;55.57;99455.78;4917048;28;20043;-96
2023/01/30 11:04:35;;;;;;;10.80;6.10;;;;;;;4.39;53.77;99473.72;4949418;28;20118;-94
2023/01/30 11:10:19;;;;;;;9.82;6.03;;;;;;;4.56;52.22;99465.09;4963422;28;20128;-96
2023/01/30 11:18:48;;;;;;;12.93;6.65;;;;;;;4.62;52.92;99426.84;5121283;23;20429;-96
2023/01/30 11:22:24;;;;;;;11.90;6.78;;;;;;;4.91;53.75;99451.84;4980771;28;20114;-96
2023/01/30 11:38:37;;;;;;;13.68;6.85;;;;;;;4.82;52.44;99410.53;5188731;23;20043;-92
2023/01/30 11:41:11;;;;;;;14.63;7.28;;;;;;;4.71;53.26;99406.81;4912514;29;20511;-94
2023/01/30 11:43:47;;;;;;;17.23;8.73;;;;;;;4.66;52.60;99386.16;4943145;29;20034;-95
2023/01/30 11:46:47;;;;;;;9.65;5.63;;;;;;;4.48;52.28;99380.88;4912044;29;20035;-95
2023/01/30 11:49:14;;;;;;;12.75;6.47;;;;;;;4.56;51.69;99374.44;4916657;29;20040;-94
2023/01/30 11:51:39;;;;;;;14.00;6.68;;;;;;;4.58;52.52;99365.16;4871150;29;20503;-96
2023/01/30 11:54:06;;;;;;;11.60;7.30;;;;;;;4.84;52.08;99363.91;4872664;29;20040;-96
2023/01/30 11:56:48;;;;;;;13.63;5.68;;;;;;;5.01;50.31;99368.56;4872925;29;20032;-96
2023/01/30 11:59:35;;;;;;;12.65;6.57;;;;;;;5.18;50.84;99382.81;4891514;29;20512;-94
2023/01/30 12:02:22;;;;;;;10.57;5.40;;;;;;;4.85;50.14;99348.72;4903303;29;20032;-96
2023/01/30 12:04:52;;;;;;;10.82;6.93;;;;;;;4.86;51.37;99371.69;4905636;29;20028;-94
2023/01/30 12:07:29;;;;;;;12.63;6.38;;;;;;;4.84;50.95;99361.25;4877149;29;20024;-96
2023/01/30 12:10:44;;;;;;;14.32;6.07;;;;;;;5.05;51.79;99369.72;4914293;29;20059;-96
2023/01/30 12:13:45;;;;;;;9.32;5.22;;;;;;;5.04;49.46;99376.94;4922574;29;20032;-94
2023/01/30 12:16:45;;;;;;;9.30;5.57;;;;;;;4.79;48.82;99361.16;4909447;29;20392;-96
2023/01/30 12:19:28;;;;;;;9.82;5.32;;;;;;;4.37;50.59;99345.19;4888161;29;20031;-94
2023/01/30 12:22:03;;;;;;;12.52;6.75;;;;;;;4.41;51.26;99356.19;4925786;29;20027;-96
2023/01/30 12:24:51;;;;;;;18.67;9.10;;;;;;;4.42;52.98;99347.97;4945130;29;20509;-96
2023/01/30 12:27:32;;;;;;;13.70;7.90;;;;;;;4.60;51.51;99347.06;4931467;29;20034;-94
2023/01/30 12:29:57;;;;;;;16.77;8.73;;;;;;;4.62;50.92;99352.19;4941020;29;20090;-93
2023/01/30 12:32:27;;;;;;;16.23;7.05;;;;;;;4.45;51.30;99306.72;4944016;29;20027;-96
2023/01/30 12:35:03;;;;;;;13.43;6.82;;;;;;;4.45;51.57;99330.72;4911972;29;20087;-96
2023/01/30 12:38:17;;;;;;;9.93;5.53;;;;;;;4.39;50.18;99312.97;4875552;29;20054;-96
2023/01/30 12:41:05;;;;;;;10.38;6.60;;;;;;;4.48;50.55;99329.44;4891935;29;20037;-96
2023/01/30 12:44:18;;;;;;;12.27;6.10;;;;;;;4.47;51.08;99317.16;4870058;29;20051;-96
2023/01/30 12:47:41;;;;;;;97.18;32.78;;;;;;;4.56;51.78;99331.75;4840437;29;20066;-96
2023/01/30 12:50:40;;;;;;;12.68;6.72;;;;;;;4.45;52.13;99344.03;4823837;29;20066;-96
2023/01/30 12:53:23;;;;;;;13.10;7.20;;;;;;;4.51;50.89;99345.78;4869891;29;20489;-95
2023/01/30 12:56:25;;;;;;;15.07;8.05;;;;;;;4.33;52.50;99333.34;4884953;29;20096;-96
2023/01/30 13:11:37;;;;;;;15.60;7.80;;;;;;;4.33;52.10;99309.34;5020404;23;20114;-96
2023/01/30 13:14:28;;;;;;;11.30;6.97;;;;;;;4.51;52.24;99316.47;4980430;28;20046;-96
2023/01/30 13:17:03;;;;;;;15.40;7.60;;;;;;;4.50;52.83;99306.81;4967560;28;20405;-95
2023/01/30 13:19:58;;;;;;;12.90;6.97;;;;;;;4.36;53.22;99289.44;4944641;28;20026;-95
2023/01/30 13:22:30;;;;;;;19.63;8.23;;;;;;;4.30;52.41;99285.84;4955671;28;20026;-94
2023/01/30 13:25:27;;;;;;;15.40;6.97;;;;;;;4.35;52.36;99303.81;4958627;28;20205;-96
2023/01/30 13:28:14;;;;;;;15.15;7.68;;;;;;;4.22;53.43;99289.63;4978639;28;20018;-94
2023/01/30 13:30:39;;;;;;;13.45;6.85;;;;;;;4.23;52.22;99288.63;4943814;28;20035;-95